Time;durP1;ratioP1;P1;durP2;ratioP2;P2;SDS_P1;SDS_P2;PMS_P1;PMS_P2;Temp;Humidity;BMP_temperature;BMP_pressure;BME280_temperature;BME280_humidity;BME280_pressure;Samples;Min_cycle;Max_cycle;Signal;HPM_P1;HPM_P2
2023/01/13 00:00:16;;;;;;;5.10;4.53;;;;;;;2.77;100.00;62287.22;4954487;29;20205;-81
2023/01/13 00:02:43;;;;;;;5.57;4.65;;;;;;;2.95;100.00;62302.69;4954652;29;20221;-81
2023/01/13 00:05:10;;;;;;;7.97;5.82;;;;;;;2.99;100.00;62306.78;4954267;29;20206;-81
2023/01/13 00:07:38;;;;;;;6.07;5.30;;;;;;;3.00;100.00;62308.31;4964001;29;20232;-81
2023/01/13 00:10:08;;;;;;;6.15;5.55;;;;;;;2.99;100.00;62307.28;4958278;29;20280;-80
2023/01/13 00:12:39;;;;;;;5.72;4.80;;;;;;;2.95;100.00;62302.69;4954292;29;20260;-80
2023/01/13 00:15:08;;;;;;;5.35;4.85;;;;;;;2.92;100.00;62294.56;4953509;29;20221;-82
2023/01/13 00:17:37;;;;;;;5.65;4.93;;;;;;;2.90;100.00;62293.00;4954500;29;20381;-81
2023/01/13 00:20:05;;;;;;;6.03;5.40;;;;;;;2.92;100.00;62297.59;4954055;29;20549;-81
2023/01/13 00:22:33;;;;;;;6.38;4.60;;;;;;;2.89;100.00;62299.00;4961740;29;20247;-79
2023/01/13 00:25:00;;;;;;;6.50;4.47;;;;;;;2.76;100.00;62288.69;4974939;28;20208;-81
2023/01/13 00:27:27;;;;;;;5.13;4.63;;;;;;;2.85;100.00;62295.41;4962255;29;20240;-82
2023/01/13 00:29:57;;;;;;;4.85;4.38;;;;;;;2.97;100.00;62304.75;4953988;29;20201;-82
2023/01/13 00:32:24;;;;;;;6.10;4.25;;;;;;;2.90;100.00;62300.06;4960904;29;20229;-81
2023/01/13 00:34:51;;;;;;;5.68;5.18;;;;;;;2.76;100.00;62280.63;4952934;29;20454;-81
2023/01/13 00:37:18;;;;;;;5.40;4.72;;;;;;;2.99;100.00;62307.28;4938983;29;20274;-81
2023/01/13 00:39:46;;;;;;;4.25;3.88;;;;;;;3.13;100.00;62316.13;4935622;29;20214;-80
2023/01/13 00:44:59;;;;;;;4.75;4.35;;;;;;;3.10;100.00;62320.59;4954120;28;20229;-81
2023/01/13 00:47:27;;;;;;;4.22;3.83;;;;;;;2.86;100.00;62293.94;4951440;29;20296;-81
2023/01/13 00:49:53;;;;;;;4.40;4.00;;;;;;;2.82;100.00;62281.78;4952362;29;20209;-83
2023/01/13 00:52:20;;;;;;;4.63;4.20;;;;;;;2.61;100.00;62267.72;4954046;29;20221;-82
2023/01/13 00:54:48;;;;;;;5.32;4.13;;;;;;;3.01;100.00;62311.34;4961093;29;20404;-81
2023/01/13 00:57:15;;;;;;;5.78;4.30;;;;;;;2.79;100.00;62286.75;4952649;29;20213;-81
2023/01/13 00:59:42;;;;;;;5.15;4.65;;;;;;;3.08;100.00;62314.03;4954132;29;20217;-81
2023/01/13 01:02:11;;;;;;;4.40;4.03;;;;;;;3.06;100.00;62311.97;4952006;29;20225;-80
2023/01/13 01:04:39;;;;;;;4.55;4.15;;;;;;;3.00;100.00;62307.81;4950749;29;20213;-81
2023/01/13 01:07:06;;;;;;;4.82;4.10;;;;;;;2.97;100.00;62302.72;4955115;29;20257;-81
2023/01/13 01:09:33;;;;;;;4.07;3.67;;;;;;;2.74;100.00;62283.59;4953247;29;20220;-81
2023/01/13 01:12:00;;;;;;;4.20;3.80;;;;;;;2.84;100.00;62288.84;4952903;29;20230;-81
2023/01/13 01:14:28;;;;;;;3.90;3.60;;;;;;;2.90;100.00;62292.50;4951958;29;20289;-81
2023/01/13 01:16:54;;;;;;;4.28;3.88;;;;;;;2.97;100.00;62302.72;4956367;29;20514;-80
2023/01/13 01:19:23;;;;;;;2.80;2.60;;;;;;;2.57;100.00;62261.63;4966908;29;20196;-79
2023/01/13 01:21:50;;;;;;;4.30;3.88;;;;;;;2.65;100.00;62271.84;4964568;29;20244;-80
2023/01/13 01:24:17;;;;;;;4.80;4.40;;;;;;;2.53;100.00;62257.53;4954697;29;20205;-81
2023/01/13 01:26:44;;;;;;;4.65;4.25;;;;;;;2.77;100.00;62284.69;4956841;29;20237;-81
2023/01/13 01:29:14;;;;;;;5.30;4.55;;;;;;;2.81;100.00;62291.31;4954808;29;20205;-82
2023/01/13 01:31:41;;;;;;;5.20;4.03;;;;;;;2.85;100.00;62292.38;4955163;29;20229;-81
2023/01/13 01:34:09;;;;;;;5.40;4.25;;;;;;;2.73;100.00;62278.06;4955214;29;20245;-79
2023/01/13 01:36:39;;;;;;;3.72;3.25;;;;;;;2.76;100.00;62283.16;4962686;29;20284;-80
2023/01/13 01:39:06;;;;;;;3.40;3.20;;;;;;;2.57;100.00;62264.16;4969951;29;20225;-81
2023/01/13 01:41:37;;;;;;;3.45;3.15;;;;;;;2.90;100.00;62295.03;4956621;29;20244;-80
2023/01/13 01:44:07;;;;;;;3.70;3.30;;;;;;;2.86;100.00;62298.97;4954213;29;20213;-81
2023/01/13 01:46:37;;;;;;;3.90;3.25;;;;;;;2.96;100.00;62306.72;4955060;29;20233;-81
2023/01/13 01:49:10;;;;;;;3.63;3.33;;;;;;;3.09;100.00;62317.06;4959788;29;20217;-81
2023/01/13 01:51:44;;;;;;;3.60;3.15;;;;;;;2.79;100.00;62283.72;4954466;29;20236;-80
2023/01/13 01:54:16;;;;;;;3.67;3.38;;;;;;;2.62;100.00;62266.78;4958137;29;20222;-80
2023/01/13 01:56:46;;;;;;;5.75;4.63;;;;;;;2.81;100.00;62286.28;4974676;29;20264;-80
2023/01/13 01:59:13;;;;;;;5.03;4.43;;;;;;;2.86;100.00;62290.91;4952480;29;20214;-83
2023/01/13 02:01:42;;;;;;;4.45;4.10;;;;;;;2.73;100.00;62280.06;4955420;29;20257;-81
2023/01/13 02:04:15;;;;;;;5.80;4.53;;;;;;;2.79;100.00;62286.75;4954838;29;20201;-81
2023/01/13 02:06:45;;;;;;;7.38;4.53;;;;;;;2.55;100.00;62259.59;4954350;29;20229;-81
2023/01/13 02:09:13;;;;;;;5.05;4.55;;;;;;;2.80;100.00;62282.22;4955537;29;20249;-82
2023/01/13 02:14:26;;;;;;;5.25;4.75;;;;;;;2.93;100.00;62296.13;4969300;29;20277;-82
2023/01/13 02:17:07;;;;;;;5.10;4.53;;;;;;;2.62;100.00;62266.25;4949648;29;20235;-80
2023/01/13 02:20:10;;;;;;;6.05;5.45;;;;;;;2.72;100.00;62279.56;4953966;29;20197;-81
2023/01/13 02:22:52;;;;;;;3.58;3.28;;;;;;;2.68;100.00;62277.94;4955656;29;20260;-80
2023/01/13 02:25:54;;;;;;;4.90;3.97;;;;;;;2.61;100.00;62265.72;4953387;29;20212;-81
2023/01/13 02:31:44;;;;;;;4.78;4.38;;;;;;;2.79;100.00;62286.22;4962401;29;20205;-81
2023/01/13 02:34:17;;;;;;;5.53;4.57;;;;;;;2.84;100.00;62288.84;4953636;29;20237;-81
2023/01/13 02:36:52;;;;;;;4.78;4.15;;;;;;;2.91;100.00;62296.56;4955995;29;20223;-81
2023/01/13 02:39:25;;;;;;;4.03;3.63;;;;;;;2.78;100.00;62285.72;4952622;29;20201;-81
2023/01/13 02:44:48;;;;;;;6.03;5.43;;;;;;;2.95;100.00;62302.69;4954732;29;20196;-83
2023/01/13 02:47:23;;;;;;;5.57;5.07;;;;;;;3.04;100.00;62309.41;4953267;29;20292;-82
2023/01/13 02:49:54;;;;;;;5.47;4.07;;;;;;;3.02;100.00;62304.84;4956633;29;20241;-81
2023/01/13 02:52:25;;;;;;;5.43;4.97;;;;;;;3.09;100.00;62317.06;4944304;29;20229;-80
2023/01/13 02:54:57;;;;;;;5.72;5.15;;;;;;;3.11;100.00;62319.63;4954698;29;20225;-79
2023/01/13 02:57:26;;;;;;;4.88;4.47;;;;;;;3.00;100.00;62305.81;4952528;29;20300;-80
2023/01/13 02:59:55;;;;;;;4.68;3.70;;;;;;;2.97;100.00;62305.25;4955689;29;20222;-82
2023/01/13 03:02:25;;;;;;;5.47;3.90;;;;;;;3.12;100.00;62320.16;4954133;29;20229;-80
2023/01/13 03:04:57;;;;;;;5.55;4.95;;;;;;;2.82;100.00;62289.81;4956196;29;20205;-82
2023/01/13 03:08:09;;;;;;;4.20;3.85;;;;;;;2.70;100.00;62282.00;4954133;29;20222;-81
2023/01/13 03:11:01;;;;;;;4.07;3.72;;;;;;;2.91;100.00;62294.06;4951437;29;20219;-80
2023/01/13 03:13:48;;;;;;;4.35;3.97;;;;;;;2.75;100.00;62280.13;4944342;29;20219;-82
2023/01/13 03:16:23;;;;;;;4.38;3.97;;;;;;;2.71;100.00;62275.50;4941979;29;20225;-80
2023/01/13 03:19:03;;;;;;;4.38;3.97;;;;;;;2.71;100.00;62278.03;4955474;29;20305;-79
2023/01/13 03:21:38;;;;;;;5.00;4.18;;;;;;;2.79;100.00;62284.25;4954854;29;20229;-79
2023/01/13 03:24:12;;;;;;;3.78;3.47;;;;;;;2.82;100.00;62284.81;4961003;29;20216;-81
2023/01/13 03:26:47;;;;;;;4.95;4.53;;;;;;;2.88;100.00;62295.97;4973358;29;20224;-80
2023/01/13 03:29:19;;;;;;;4.57;4.18;;;;;;;2.92;100.00;62297.59;4971302;29;20377;-80
2023/01/13 03:31:54;;;;;;;6.63;4.50;;;;;;;3.02;100.00;62309.88;4972004;29;20550;-79
2023/01/13 03:34:28;;;;;;;5.20;4.70;;;;;;;3.01;100.00;62306.31;4955993;29;20236;-82
2023/01/13 03:36:57;;;;;;;4.57;4.18;;;;;;;3.05;100.00;62307.94;4955766;29;20479;-80
2023/01/13 03:39:30;;;;;;;4.70;3.72;;;;;;;2.82;100.00;62291.81;4956241;29;20209;-81
2023/01/13 03:42:00;;;;;;;5.65;4.95;;;;;;;3.05;100.00;62310.44;4952724;29;20253;-81
2023/01/13 03:44:32;;;;;;;5.35;4.85;;;;;;;3.15;100.00;62323.22;4953324;29;20217;-81
2023/01/13 03:47:07;;;;;;;4.97;4.57;;;;;;;3.12;100.00;62317.63;4962708;29;20243;-81
2023/01/13 03:49:40;;;;;;;4.88;4.22;;;;;;;3.04;100.00;62312.44;4975381;29;20223;-80
2023/01/13 03:52:12;;;;;;;4.82;4.43;;;;;;;3.04;100.00;62311.91;4956435;29;20228;-79
2023/01/13 03:54:45;;;;;;;5.30;4.03;;;;;;;3.11;100.00;62317.13;4952842;29;20432;-79
2023/01/13 03:57:16;;;;;;;5.05;4.65;;;;;;;3.02;100.00;62312.38;4953739;29;20224;-79
2023/01/13 03:59:47;;;;;;;5.15;4.65;;;;;;;2.98;100.00;62303.75;4946918;29;20273;-79
2023/01/13 04:02:19;;;;;;;4.20;3.80;;;;;;;3.02;100.00;62307.34;4943729;29;20229;-82
2023/01/13 04:04:55;;;;;;;4.68;4.28;;;;;;;3.05;100.00;62313.47;4954883;29;20225;-81
2023/01/13 04:07:33;;;;;;;4.63;4.28;;;;;;;2.92;100.00;62295.06;4951509;29;20225;-79
2023/01/13 04:10:03;;;;;;;4.90;4.50;;;;;;;3.03;100.00;62311.41;4951192;29;20276;-81
2023/01/13 04:15:13;;;;;;;5.82;5.15;;;;;;;3.12;100.00;62323.16;4951494;29;20223;-80
2023/01/13 04:17:40;;;;;;;6.32;5.55;;;;;;;3.03;100.00;62308.38;4952904;29;20305;-81
2023/01/13 04:20:10;;;;;;;6.22;5.57;;;;;;;3.08;100.00;62311.53;4970052;29;20260;-80
2023/01/13 04:22:38;;;;;;;6.43;5.72;;;;;;;3.13;100.00;62316.13;4972997;29;20441;-81
2023/01/13 04:25:06;;;;;;;5.47;5.00;;;;;;;3.21;100.00;62326.88;4971403;29;20196;-80
2023/01/13 04:27:33;;;;;;;7.60;6.60;;;;;;;3.07;100.00;62309.97;4951625;29;20394;-81
2023/01/13 04:30:00;;;;;;;7.72;6.00;;;;;;;3.23;100.00;62331.44;4954027;29;20213;-80
2023/01/13 04:32:27;;;;;;;5.97;5.38;;;;;;;3.23;100.00;62331.97;4950329;29;20232;-81
2023/01/13 04:34:54;;;;;;;7.50;5.53;;;;;;;3.27;100.00;62330.53;4945553;29;20310;-80
2023/01/13 04:37:23;;;;;;;6.43;5.63;;;;;;;3.27;100.00;62333.03;4937858;29;20226;-81
2023/01/13 04:39:50;;;;;;;7.50;6.07;;;;;;;3.29;100.00;62337.63;4933541;29;20202;-81
2023/01/13 04:42:17;;;;;;;6.63;5.97;;;;;;;3.31;100.00;62337.66;4937254;29;20250;-81
2023/01/13 04:44:44;;;;;;;6.20;5.57;;;;;;;3.37;100.00;62343.31;4943165;29;20186;-81
2023/01/13 04:47:12;;;;;;;6.15;5.30;;;;;;;3.24;100.00;62327.97;4948923;29;20226;-81
2023/01/13 04:49:39;;;;;;;7.07;6.18;;;;;;;3.01;100.00;62306.31;4952329;29;20265;-81
2023/01/13 04:52:06;;;;;;;7.60;6.40;;;;;;;3.08;100.00;62313.53;4953803;29;20232;-81
2023/01/13 04:54:34;;;;;;;7.65;6.20;;;;;;;3.03;100.00;62308.38;4956396;29;20237;-80
2023/01/13 04:57:02;;;;;;;6.22;5.60;;;;;;;3.28;100.00;62334.06;4955841;29;20249;-79
2023/01/13 04:59:29;;;;;;;6.32;5.60;;;;;;;3.38;100.00;62344.88;4957624;29;20252;-81
2023/01/13 05:01:56;;;;;;;7.82;6.22;;;;;;;3.33;100.00;62339.72;4956545;29;20248;-81
2023/01/13 05:04:23;;;;;;;7.40;6.43;;;;;;;3.47;100.00;62353.59;4944771;29;20395;-79
2023/01/13 05:06:50;;;;;;;7.43;6.38;;;;;;;3.61;100.00;62364.97;4965060;29;20256;-80
2023/01/13 05:09:17;;;;;;;6.72;6.10;;;;;;;3.65;100.00;62374.63;4954714;29;20221;-80
2023/01/13 05:17:28;;;;;;;8.32;6.50;;;;;;;3.77;100.00;62384.47;4943755;29;20224;-81
2023/01/13 05:20:03;;;;;;;5.82;5.22;;;;;;;3.48;100.00;62352.66;4944014;29;20217;-81
2023/01/13 05:25:24;;;;;;;6.20;4.95;;;;;;;3.32;100.00;62338.72;4955372;29;20196;-79
2023/01/13 05:27:55;;;;;;;4.80;4.03;;;;;;;3.50;100.00;62356.69;4959505;29;20237;-81
2023/01/13 05:30:24;;;;;;;4.95;4.57;;;;;;;3.49;100.00;62358.69;4956992;28;20220;-81
2023/01/13 05:32:51;;;;;;;4.72;4.07;;;;;;;3.40;100.00;62343.88;4962416;29;20423;-82
2023/01/13 05:35:19;;;;;;;4.03;3.65;;;;;;;3.75;100.00;62384.41;4956496;29;20300;-81
2023/01/13 05:37:47;;;;;;;3.92;3.58;;;;;;;3.56;100.00;62365.38;4954895;29;20297;-82
2023/01/13 05:43:23;;;;;;;3.83;3.53;;;;;;;3.93;100.00;62400.91;4962762;29;20269;-82
2023/01/13 05:45:53;;;;;;;4.57;4.18;;;;;;;3.83;100.00;62390.13;4955950;29;20237;-80
2023/01/13 05:48:22;;;;;;;10.00;5.72;;;;;;;3.86;100.00;62390.69;4955232;29;20216;-80
2023/01/13 05:50:52;;;;;;;4.78;4.28;;;;;;;3.72;100.00;62378.81;4954196;29;20234;-81
2023/01/13 05:53:20;;;;;;;6.82;6.00;;;;;;;3.85;100.00;62397.22;4955764;29;20213;-83
2023/01/13 05:55:49;;;;;;;5.53;5.03;;;;;;;3.89;100.00;62399.31;4953485;28;20273;-81
2023/01/13 05:58:21;;;;;;;8.90;6.40;;;;;;;3.77;100.00;62389.50;4979932;28;20220;-80
2023/01/13 06:00:49;;;;;;;8.23;6.13;;;;;;;3.93;100.00;62403.44;4955885;29;20209;-81
2023/01/13 06:03:18;;;;;;;7.55;6.57;;;;;;;3.68;100.00;62377.72;4952980;29;20193;-83
2023/01/13 06:05:46;;;;;;;9.60;7.13;;;;;;;3.43;100.00;62350.00;4952764;29;20209;-81
2023/01/13 06:08:14;;;;;;;7.70;6.90;;;;;;;3.46;100.00;62353.09;4954487;29;20197;-82
2023/01/13 06:10:42;;;;;;;7.03;6.32;;;;;;;3.28;100.00;62339.63;4952829;29;20202;-80
2023/01/13 06:13:09;;;;;;;7.97;6.70;;;;;;;3.25;100.00;62331.50;4952101;29;20217;-81
2023/01/13 06:15:37;;;;;;;9.20;7.22;;;;;;;3.40;100.00;62349.44;4957122;29;20229;-83
2023/01/13 06:18:05;;;;;;;8.55;7.20;;;;;;;3.46;100.00;62353.09;4956600;29;20205;-81
2023/01/13 06:20:32;;;;;;;8.48;6.70;;;;;;;3.24;100.00;62333.00;4951990;29;20197;-80
2023/01/13 06:23:00;;;;;;;9.70;7.90;;;;;;;3.32;100.00;62338.19;4957760;29;20213;-81
2023/01/13 06:25:34;;;;;;;10.00;8.13;;;;;;;3.42;100.00;62351.50;4959452;29;20208;-81
2023/01/13 06:28:07;;;;;;;8.40;6.93;;;;;;;3.50;100.00;62357.19;4943852;29;20289;-81
2023/01/13 06:30:42;;;;;;;8.45;7.25;;;;;;;3.40;100.00;62349.44;4956884;29;20233;-82
2023/01/13 06:33:14;;;;;;;9.07;7.97;;;;;;;3.43;100.00;62347.50;4960269;29;20205;-82
2023/01/13 06:35:49;;;;;;;12.15;7.95;;;;;;;3.49;100.00;62355.66;4957114;29;20221;-81
2023/01/13 06:38:19;;;;;;;10.38;7.47;;;;;;;3.52;100.00;62361.78;4956371;29;20243;-81
2023/01/13 06:40:47;;;;;;;9.57;8.10;;;;;;;3.35;100.00;62343.78;4955603;29;20277;-81
2023/01/13 06:43:14;;;;;;;7.82;6.95;;;;;;;3.10;100.00;62316.09;4953164;29;20486;-81
2023/01/13 06:45:46;;;;;;;10.20;7.32;;;;;;;3.12;100.00;62318.13;4953933;29;20193;-81
2023/01/13 06:48:13;;;;;;;10.13;7.18;;;;;;;3.01;100.00;62303.81;4950686;29;20213;-82
2023/01/13 06:50:41;;;;;;;10.70;8.25;;;;;;;3.19;100.00;62324.84;4950366;29;20219;-81
2023/01/13 06:53:08;;;;;;;8.75;7.30;;;;;;;3.25;100.00;62333.50;4956696;29;20197;-81
2023/01/13 06:55:36;;;;;;;11.05;8.10;;;;;;;3.25;100.00;62333.50;4959033;28;20233;-83
2023/01/13 06:58:07;;;;;;;9.18;6.88;;;;;;;3.17;100.00;62323.28;4959684;28;20297;-81
2023/01/13 07:00:38;;;;;;;13.00;7.38;;;;;;;3.15;100.00;62323.75;4957281;28;20201;-82
2023/01/13 07:05:57;;;;;;;15.60;10.15;;;;;;;3.32;100.00;62343.22;5207385;23;20223;-82
2023/01/13 07:08:26;;;;;;;11.98;7.88;;;;;;;3.36;100.00;62342.81;4999619;28;20199;-81
2023/01/13 07:10:55;;;;;;;9.80;7.22;;;;;;;3.15;100.00;62316.19;4997225;28;20251;-81
2023/01/13 07:16:09;;;;;;;10.50;6.75;;;;;;;3.17;100.00;62325.81;4994568;28;20243;-83
2023/01/13 07:18:39;;;;;;;11.52;7.30;;;;;;;3.38;100.00;62349.91;4990963;28;20204;-84
2023/01/13 07:21:12;;;;;;;11.52;8.30;;;;;;;3.29;100.00;62338.16;4994886;28;20224;-82
2023/01/13 07:23:41;;;;;;;10.07;7.32;;;;;;;3.32;100.00;62346.25;4995500;28;20203;-83
2023/01/13 07:26:10;;;;;;;10.48;7.78;;;;;;;3.53;100.00;62362.28;4994264;28;20305;-82
2023/01/13 07:28:38;;;;;;;12.85;7.22;;;;;;;3.52;100.00;62361.78;4995749;28;20200;-83
2023/01/13 07:31:15;;;;;;;7.57;6.75;;;;;;;3.55;100.00;62364.84;4996847;28;20224;-83
2023/01/13 07:33:45;;;;;;;11.55;6.97;;;;;;;3.44;100.00;62348.53;4997088;28;20245;-81
2023/01/13 07:36:17;;;;;;;10.02;7.68;;;;;;;3.08;100.00;62316.56;4995903;28;20559;-82
2023/01/13 07:38:47;;;;;;;10.70;7.85;;;;;;;3.44;100.00;62351.03;4996773;28;20204;-81
2023/01/13 07:44:03;;;;;;;9.02;7.47;;;;;;;3.10;100.00;62318.63;4990730;28;20199;-81
2023/01/13 07:46:31;;;;;;;8.13;7.15;;;;;;;2.98;100.00;62303.25;4972096;28;20229;-81
2023/01/13 07:48:58;;;;;;;12.50;7.47;;;;;;;3.52;100.00;62358.75;4991023;28;20358;-81
2023/01/13 07:51:27;;;;;;;7.28;6.63;;;;;;;3.81;100.00;62386.06;4996781;28;20284;-81
2023/01/13 07:53:56;;;;;;;7.40;6.22;;;;;;;3.80;100.00;62387.03;4992996;28;20208;-80
2023/01/13 07:59:04;;;;;;;7.53;6.53;;;;;;;4.11;100.00;62421.44;5022380;23;20239;-84
2023/01/13 08:01:32;;;;;;;6.75;5.57;;;;;;;4.13;100.00;62424.00;4992368;28;20223;-81
2023/01/13 08:03:59;;;;;;;8.40;6.32;;;;;;;3.95;100.00;62405.47;4987194;28;20209;-80
2023/01/13 08:06:28;;;;;;;8.93;6.97;;;;;;;3.68;100.00;62375.19;4973970;28;20276;-82
2023/01/13 08:08:55;;;;;;;11.02;8.27;;;;;;;3.66;100.00;62373.13;4992764;28;20204;-83
2023/01/13 08:11:24;;;;;;;8.88;7.85;;;;;;;3.55;100.00;62361.84;4977487;28;20376;-83
2023/01/13 08:13:56;;;;;;;11.15;8.32;;;;;;;4.04;100.00;62419.78;4987617;28;20235;-83
2023/01/13 08:16:23;;;;;;;11.35;8.65;;;;;;;4.24;100.00;62429.78;4990715;28;20236;-81
2023/01/13 08:18:50;;;;;;;11.80;8.88;;;;;;;4.16;100.00;62424.56;4990920;28;20207;-81
2023/01/13 08:21:17;;;;;;;11.88;8.93;;;;;;;3.90;100.00;62397.81;4993109;28;20220;-80
2023/01/13 08:23:46;;;;;;;13.18;9.35;;;;;;;4.04;100.00;62412.22;4992888;28;20227;-81
2023/01/13 08:26:16;;;;;;;13.88;10.18;;;;;;;4.11;100.00;62423.94;4979468;28;20287;-80
2023/01/13 08:28:49;;;;;;;13.00;10.10;;;;;;;4.28;100.00;62438.94;4989747;28;20204;-80
2023/01/13 08:31:25;;;;;;;10.32;8.57;;;;;;;4.42;100.00;62453.84;4997475;28;20255;-84
2023/01/13 08:33:52;;;;;;;12.55;9.27;;;;;;;5.08;100.00;62521.28;5000091;28;20230;-81
2023/01/13 08:36:20;;;;;;;10.90;8.60;;;;;;;4.52;100.00;62464.13;4995453;28;20239;-80
2023/01/13 08:38:49;;;;;;;9.35;8.35;;;;;;;4.59;100.00;62468.81;4998707;28;20239;-81
2023/01/13 08:41:53;;;;;;;11.63;8.07;;;;;;;4.90;100.00;62497.19;4987197;28;20247;-80
2023/01/13 08:44:08;;;;;;;10.10;8.13;;;;;;;5.45;100.00;62559.38;4977192;29;20248;-80
2023/01/13 08:46:35;;;;;;;9.75;7.80;;;;;;;4.97;100.00;62506.91;4975932;28;20616;-81
2023/01/13 08:49:04;;;;;;;13.13;8.60;;;;;;;5.15;100.00;62525.97;4977988;29;20264;-82
2023/01/13 08:51:31;;;;;;;12.68;8.20;;;;;;;4.66;100.00;62471.00;4993624;28;20243;-81
2023/01/13 08:54:01;;;;;;;9.45;7.03;;;;;;;4.98;100.00;62508.47;4996909;28;20207;-82
2023/01/13 08:56:28;;;;;;;8.55;6.75;;;;;;;5.68;100.00;62580.56;4995475;28;20320;-81
2023/01/13 08:58:58;;;;;;;9.43;7.03;;;;;;;5.29;100.00;62542.91;4976982;28;20272;-82
2023/01/13 09:01:27;;;;;;;9.25;6.07;;;;;;;5.19;100.00;62532.63;4979256;28;20228;-81
2023/01/13 09:03:55;;;;;;;9.00;6.35;;;;;;;4.96;100.00;62508.41;4978401;28;20205;-80
2023/01/13 09:06:22;;;;;;;10.80;6.22;;;;;;;5.17;100.00;62527.50;4984082;28;20293;-82
2023/01/13 09:08:53;;;;;;;8.48;6.32;;;;;;;5.41;100.00;62552.75;4995951;28;20196;-80
2023/01/13 09:14:21;;;;;;;7.10;6.10;;;;;;;5.37;100.00;62548.09;4995501;28;20245;-81
2023/01/13 09:16:47;;;;;;;7.65;6.45;;;;;;;5.26;100.00;62542.34;4976433;28;20247;-80
2023/01/13 09:19:15;;;;;;;6.93;6.22;;;;;;;4.92;100.00;62504.81;4974691;28;20204;-81
2023/01/13 09:21:43;;;;;;;6.75;5.20;;;;;;;4.97;100.00;62514.50;4976141;28;20221;-81
2023/01/13 09:24:11;;;;;;;6.00;5.40;;;;;;;4.47;100.00;62455.94;4981127;28;20215;-82
2023/01/13 09:26:40;;;;;;;4.95;4.43;;;;;;;4.40;100.00;62449.25;4993071;28;20216;-81
2023/01/13 09:29:07;;;;;;;7.30;5.63;;;;;;;4.55;100.00;62464.72;4995240;28;20215;-80
2023/01/13 09:31:35;;;;;;;5.57;4.57;;;;;;;4.65;100.00;62474.50;4995064;28;20223;-81
2023/01/13 09:36:46;;;;;;;9.80;5.60;;;;;;;4.91;100.00;62505.78;4975407;28;20247;-82
2023/01/13 09:39:14;;;;;;;9.27;5.38;;;;;;;5.23;100.00;62534.19;4976855;28;20272;-82
2023/01/13 09:44:42;;;;;;;10.93;4.45;;;;;;;4.47;100.00;62461.50;4976495;29;20549;-80
2023/01/13 09:47:21;;;;;;;7.38;4.20;;;;;;;4.93;100.00;62502.78;4977237;28;20217;-82
2023/01/13 09:49:49;;;;;;;6.45;5.03;;;;;;;5.15;100.00;62525.97;4977339;28;20413;-79
2023/01/13 09:52:19;;;;;;;12.13;5.57;;;;;;;5.30;100.00;62538.88;4983384;28;20236;-83
2023/01/13 09:54:51;;;;;;;5.13;4.28;;;;;;;5.41;100.00;62552.75;4975891;28;20211;-80
2023/01/13 09:57:21;;;;;;;5.97;4.63;;;;;;;5.54;100.00;62563.09;4975338;28;20304;-80
2023/01/13 09:59:48;;;;;;;6.97;4.57;;;;;;;5.97;100.00;62609.44;4979220;28;20208;-80
2023/01/13 10:02:32;;;;;;;9.18;4.88;;;;;;;6.08;100.00;62623.81;4984397;28;20229;-81
2023/01/13 10:05:06;;;;;;;5.43;3.50;;;;;;;5.34;100.00;62543.00;4989375;28;20227;-81
2023/01/13 10:07:37;;;;;;;2.63;2.42;;;;;;;4.72;100.00;62479.16;4994118;28;20591;-80
2023/01/13 10:10:11;;;;;;;5.75;4.03;;;;;;;4.94;100.00;62504.34;4989589;28;20204;-81
2023/01/13 10:15:26;;;;;;;6.30;4.38;;;;;;;5.07;100.00;62517.72;4978590;28;20203;-81
2023/01/13 10:18:02;;;;;;;4.25;3.85;;;;;;;5.56;100.00;62573.25;4993977;28;20243;-80
2023/01/13 10:20:35;;;;;;;6.40;4.60;;;;;;;5.61;100.00;62577.88;4991191;28;20204;-81
2023/01/13 10:23:15;;;;;;;4.10;3.80;;;;;;;5.76;100.00;62588.28;4990384;28;20509;-82
2023/01/13 10:25:56;;;;;;;4.65;4.25;;;;;;;5.68;100.00;62583.09;4988356;28;20278;-81
2023/01/13 10:28:25;;;;;;;6.68;3.95;;;;;;;5.15;100.00;62527.97;4992197;28;20219;-80
2023/01/13 10:30:59;;;;;;;3.88;3.55;;;;;;;5.00;100.00;62508.00;4990866;28;20223;-81
2023/01/13 10:33:28;;;;;;;7.10;4.95;;;;;;;5.72;100.00;62584.69;4980589;28;20212;-80
2023/01/13 10:35:59;;;;;;;8.95;4.82;;;;;;;5.90;100.00;62602.22;4990775;28;20248;-81
2023/01/13 10:38:29;;;;;;;5.07;4.10;;;;;;;6.03;100.00;62616.13;4994715;28;20208;-80
2023/01/13 10:40:58;;;;;;;6.70;4.45;;;;;;;6.09;100.00;62619.78;4984097;28;20280;-80
2023/01/13 10:43:30;;;;;;;3.65;3.15;;;;;;;5.73;100.00;62583.19;4984714;28;20200;-80
2023/01/13 10:46:05;;;;;;;3.05;2.85;;;;;;;5.42;100.00;62553.25;4985464;28;20247;-79
2023/01/13 10:48:35;;;;;;;21.75;7.30;;;;;;;5.35;100.00;62544.03;5282225;23;20505;-80
2023/01/13 10:54:18;;;;;;;4.00;3.58;;;;;;;5.15;100.00;62525.97;5557790;23;20302;-83
2023/01/13 10:56:49;;;;;;;4.93;3.13;;;;;;;4.75;100.00;62484.78;5000784;28;20258;-81
2023/01/13 10:59:26;;;;;;;4.05;3.38;;;;;;;4.96;100.00;62506.41;4989897;28;20240;-81
2023/01/13 11:02:19;;;;;;;3.47;3.17;;;;;;;4.84;100.00;62494.03;4983853;28;20225;-81
2023/01/13 11:05:01;;;;;;;6.03;3.05;;;;;;;5.04;100.00;62519.19;4980502;28;20435;-81
2023/01/13 11:07:33;;;;;;;3.72;3.42;;;;;;;5.04;100.00;62519.19;4982204;28;20235;-80
2023/01/13 11:10:16;;;;;;;3.08;2.80;;;;;;;4.97;100.00;62509.44;4983243;28;20243;-80
2023/01/13 11:12:49;;;;;;;5.68;3.63;;;;;;;5.08;100.00;62518.75;4990067;28;20227;-79
2023/01/13 11:15:22;;;;;;;4.35;3.42;;;;;;;5.07;100.00;62519.75;4992021;28;20204;-80
2023/01/13 11:17:59;;;;;;;3.88;3.40;;;;;;;5.35;100.00;62549.09;4993085;28;20239;-81
2023/01/13 11:20:32;;;;;;;2.92;2.72;;;;;;;5.68;100.00;62582.56;4978841;28;20200;-80
2023/01/13 11:23:08;;;;;;;3.22;2.88;;;;;;;5.78;100.00;62595.41;4996814;28;20239;-79
2023/01/13 11:31:15;;;;;;;2.60;2.40;;;;;;;5.22;100.00;62538.22;4997685;28;20548;-80
2023/01/13 11:33:51;;;;;;;6.10;3.22;;;;;;;5.13;100.00;62525.91;5012334;28;20215;-81
2023/01/13 11:36:23;;;;;;;3.42;3.22;;;;;;;5.30;100.00;62543.94;5018444;28;20226;-80
2023/01/13 11:38:54;;;;;;;3.70;3.50;;;;;;;5.48;100.00;62562.47;5027566;28;20215;-81
2023/01/13 11:41:29;;;;;;;3.30;3.10;;;;;;;5.76;100.00;62585.75;5011363;28;20220;-81
2023/01/13 11:44:04;;;;;;;5.10;3.80;;;;;;;5.84;100.00;62596.56;5011708;28;20237;-80
2023/01/13 11:46:34;;;;;;;3.50;3.30;;;;;;;6.08;100.00;62623.28;5011814;28;20254;-79
2023/01/13 11:51:53;;;;;;;2.78;2.67;;;;;;;6.17;97.60;62635.63;5391780;23;20591;-80
2023/01/13 11:54:38;;;;;;;2.97;2.80;;;;;;;6.38;96.61;62654.22;4993154;28;20207;-80
2023/01/13 11:57:36;;;;;;;2.78;2.67;;;;;;;6.52;95.48;62668.66;4990976;28;20239;-78
2023/01/13 12:00:27;;;;;;;3.30;3.00;;;;;;;6.58;93.84;62675.38;4972504;28;20201;-80
2023/01/13 12:03:17;;;;;;;3.08;2.58;;;;;;;6.57;94.03;62671.28;4990396;28;20465;-80
2023/01/13 12:05:58;;;;;;;2.90;2.60;;;;;;;6.60;93.35;62676.91;4985507;28;20238;-81
2023/01/13 12:08:39;;;;;;;2.55;2.45;;;;;;;6.91;92.92;62706.34;4989189;28;20192;-79
2023/01/13 12:11:15;;;;;;;4.53;2.40;;;;;;;6.91;91.18;62708.88;4975159;29;20265;-79
2023/01/13 12:13:55;;;;;;;3.53;2.78;;;;;;;7.03;91.20;62719.25;4991242;28;20268;-80
2023/01/13 12:16:25;;;;;;;3.65;3.35;;;;;;;6.84;91.63;62699.13;4993189;28;20224;-80
2023/01/13 12:19:20;;;;;;;4.07;3.78;;;;;;;6.75;91.53;62692.38;4995982;28;20234;-79
2023/01/13 12:22:10;;;;;;;3.70;3.40;;;;;;;7.06;90.92;62724.34;4990600;28;20255;-80
2023/01/13 12:24:45;;;;;;;8.40;3.75;;;;;;;7.07;90.38;62720.34;4996847;28;20196;-80
2023/01/13 12:27:19;;;;;;;3.65;3.10;;;;;;;7.00;90.92;62721.22;4989296;28;20283;-80
2023/01/13 12:29:54;;;;;;;3.67;3.47;;;;;;;6.76;90.98;62690.88;4992680;28;20196;-82
2023/01/13 12:32:32;;;;;;;4.40;4.00;;;;;;;6.88;90.47;62703.25;4990836;28;20221;-81
2023/01/13 12:35:22;;;;;;;6.40;5.15;;;;;;;6.90;91.52;62705.31;4992240;28;20204;-82
2023/01/13 12:38:01;;;;;;;3.97;3.38;;;;;;;6.25;94.09;62646.38;4993539;28;20297;-81
2023/01/13 12:46:37;;;;;;;4.53;4.22;;;;;;;6.25;96.62;62641.34;4985575;28;20247;-80
2023/01/13 12:49:26;;;;;;;4.47;4.07;;;;;;;6.37;97.65;62653.69;4993468;28;20192;-81
2023/01/13 12:52:25;;;;;;;5.60;4.70;;;;;;;6.65;96.76;62687.13;4993013;28;20271;-81
2023/01/13 12:55:14;;;;;;;5.03;4.57;;;;;;;6.72;95.06;62684.75;4984974;28;20193;-79
2023/01/13 12:58:13;;;;;;;5.25;4.75;;;;;;;6.50;95.13;62667.13;4973293;28;20244;-79